Estación Meteorológica Peña el Pijo (Robertgarden) [ 11/12/18 21:14:38 CET ]

Fecha Hora Presion(HPa) Temp (°C) Humedad % Rocio (°C) Viento ( m/s) Direccion Lluvia 1Hora(mm) Lluvia 24H(mm) LLuvia Total(mm)
2018-Jul-08 01:02:01 1013.300 15.9 60 8.2         269.36
2018-Jul-08 02:01:41 1013.000 15.1 62 7.9         269.36
2018-Jul-08 03:01:40 1013.000 14.8 65 8.3         269.36
2018-Jul-08 04:01:39 1012.200 13.8 69 8.2         269.36
2018-Jul-08 05:01:40 1012.400 13.1 71 8.0         269.36
2018-Jul-08 06:01:38 1012.600 12.3 74 7.8         269.36
2018-Jul-08 07:01:45 1013.000 11.6 76 7.5         269.36
2018-Jul-08 08:01:48 1012.900 12.9 79 9.3         269.36
2018-Jul-08 09:01:46 1013.300 20.2 63 12.9         269.36
2018-Jul-08 10:01:41 1013.200 24.9 46 12.4         269.36
2018-Jul-08 11:01:41 1013.100 27.9 35 10.9         269.36
2018-Jul-08 12:02:04 1012.900 31.8 29 11.5         269.36
2018-Jul-08 13:02:00 1013.100 33.2 26 10.9         269.36
2018-Jul-08 14:01:54 1012.700 33.0 25 10.1 1.9 SSE     269.36
2018-Jul-08 15:01:40 1012.400 33.9 23 9.6         269.36
2018-Jul-08 16:01:43 1012.000 35.9 20 9.5         269.36
2018-Jul-08 17:01:41 1011.700 36.3 20 9.8         269.36
2018-Jul-08 18:01:40 1011.500 33.5 25 10.5         269.36
2018-Jul-08 19:01:46 1011.600 30.5 28 9.8         269.36
2018-Jul-08 20:01:50 1011.900 28.3 34 10.8         269.36
2018-Jul-08 21:01:46 1012.400 26.1 39 11.1         269.36
2018-Jul-08 22:01:58 1012.800 23.6 44 10.6         269.36
2018-Jul-08 23:01:27 1013.700 20.7 51 10.2         269.36

Temperatura Máxima:36°    Temperatura Mínima:11°
Presión Máxima:1013.700 Hpa    Presión Mínima:1011.500 Hpa


Volver